createdAt,value
2018-05-01T00:00:45.213Z,99997.64
2018-05-01T00:03:13.608Z,100001.67
2018-05-01T00:05:41.987Z,100009.86
2018-05-01T00:08:10.365Z,100012.52
2018-05-01T00:10:38.725Z,100012.45
2018-05-01T00:13:07.869Z,100009.42
2018-05-01T00:15:36.262Z,100009.21
2018-05-01T00:18:04.611Z,100018.42
2018-05-01T00:20:33.133Z,100010.66
2018-05-01T00:23:02.275Z,100004.64
2018-05-01T00:25:31.413Z,100015.23
2018-05-01T00:27:59.779Z,100021.49
2018-05-01T00:30:28.161Z,100013.63
2018-05-01T00:32:56.522Z,100025.58
2018-05-01T00:35:25.687Z,100025.75
2018-05-01T00:37:54.054Z,100025.91
2018-05-01T00:40:22.442Z,100019.22
2018-05-01T00:42:50.817Z,100025.69
2018-05-01T00:45:19.188Z,100021.49
2018-05-01T00:47:47.573Z,100029.88
2018-05-01T00:50:15.962Z,100029.12
2018-05-01T00:52:45.347Z,100035.34
2018-05-01T00:55:13.749Z,100033.40
2018-05-01T00:57:42.115Z,100035.95
2018-05-01T01:00:10.513Z,100036.75
2018-05-01T01:02:38.900Z,100035.89
2018-05-01T01:05:07.308Z,100035.20
2018-05-01T01:07:35.681Z,100036.56
2018-05-01T01:10:04.058Z,100044.15
2018-05-01T01:12:32.402Z,100045.00
2018-05-01T01:15:00.769Z,100049.42
2018-05-01T01:17:29.923Z,100054.55
2018-05-01T01:19:58.328Z,100068.25
2018-05-01T01:22:26.863Z,100055.09
2018-05-01T01:24:55.250Z,100069.67
2018-05-01T01:27:23.629Z,100073.63
2018-05-01T01:29:51.997Z,100069.05
2018-05-01T01:32:21.254Z,100069.85
2018-05-01T01:34:49.615Z,100078.78
2018-05-01T01:37:17.180Z,100084.86
2018-05-01T01:39:44.844Z,100080.95
2018-05-01T01:42:12.362Z,100098.30
2018-05-01T01:44:40.664Z,100101.66
2018-05-01T01:47:08.190Z,100103.50
2018-05-01T01:49:35.799Z,100099.94
2018-05-01T01:52:03.330Z,100101.73
2018-05-01T01:54:31.633Z,100106.83
2018-05-01T01:56:59.149Z,100103.08
2018-05-01T01:59:26.697Z,100113.79
2018-05-01T02:01:54.220Z,100120.98
2018-05-01T02:04:21.772Z,100121.51
2018-05-01T02:06:50.080Z,100108.66
2018-05-01T02:09:17.585Z,100119.28
2018-05-01T02:11:45.256Z,100121.28
2018-05-01T02:14:12.769Z,100125.88
2018-05-01T02:16:40.312Z,100121.94
2018-05-01T02:19:08.643Z,100126.09
2018-05-01T02:21:36.169Z,100132.14
2018-05-01T02:24:03.716Z,100130.69
2018-05-01T02:26:32.017Z,100136.89
2018-05-01T02:28:59.558Z,100146.39
2018-05-01T02:31:27.856Z,100135.50
2018-05-01T02:33:55.401Z,100151.92
2018-05-01T02:36:22.959Z,100153.08
2018-05-01T02:38:50.485Z,100145.61
2018-05-01T02:41:18.139Z,100161.32
2018-05-01T02:43:45.573Z,100158.38
2018-05-01T02:46:13.110Z,100162.83
2018-05-01T02:48:40.642Z,100161.67
2018-05-01T02:51:08.178Z,100165.05
2018-05-01T02:53:35.709Z,100161.03
2018-05-01T02:56:03.601Z,100167.50
2018-05-01T02:58:31.151Z,100165.83
2018-05-01T03:00:59.441Z,100164.90
2018-05-01T03:03:27.718Z,100169.41
2018-05-01T03:05:56.006Z,100170.28
2018-05-01T03:08:23.529Z,100160.88
2018-05-01T03:10:51.069Z,100181.33
2018-05-01T03:13:18.613Z,100178.16
2018-05-01T03:15:46.159Z,100177.02
2018-05-01T03:18:14.450Z,100176.58
2018-05-01T03:20:41.981Z,100185.87
2018-05-01T03:23:09.505Z,100188.77
2018-05-01T03:25:37.115Z,100194.56
2018-05-01T03:28:05.415Z,100186.78
2018-05-01T03:30:32.941Z,100186.11
2018-05-01T03:33:00.465Z,100190.64
2018-05-01T03:35:28.003Z,100193.80
2018-05-01T03:37:55.522Z,100195.61
2018-05-01T03:40:23.078Z,100206.92
2018-05-01T03:42:50.593Z,100207.95
2018-05-01T03:45:18.130Z,100198.44
2018-05-01T03:47:45.664Z,100209.97
2018-05-01T03:50:13.190Z,100210.23
2018-05-01T03:52:40.721Z,100215.52
2018-05-01T03:55:08.240Z,100209.56
2018-05-01T03:57:35.761Z,100212.49
2018-05-01T04:00:04.049Z,100227.60
2018-05-01T04:02:32.342Z,100225.20
2018-05-01T04:04:59.904Z,100226.34
2018-05-01T04:07:27.446Z,100227.52
2018-05-01T04:09:55.734Z,100235.66
2018-05-01T04:12:24.037Z,100234.38
2018-05-01T04:14:51.567Z,100238.66
2018-05-01T04:17:19.855Z,100241.92
2018-05-01T04:19:48.151Z,100246.15
2018-05-01T04:22:15.677Z,100244.91
2018-05-01T04:24:43.209Z,100250.31
2018-05-01T04:27:10.730Z,100251.15
2018-05-01T04:29:39.037Z,100270.77
2018-05-01T04:32:06.573Z,100262.73
2018-05-01T04:34:34.929Z,100259.48
2018-05-01T04:37:02.501Z,100270.77
2018-05-01T04:39:30.026Z,100268.70
2018-05-01T04:41:57.546Z,100280.59
2018-05-01T04:44:25.842Z,100282.47
2018-05-01T04:46:53.445Z,100286.03
2018-05-01T04:49:20.967Z,100292.12
2018-05-01T04:51:48.550Z,100300.05
2018-05-01T04:54:16.058Z,100305.50
2018-05-01T04:56:43.581Z,100317.88
2018-05-01T04:59:11.134Z,100322.84
2018-05-01T05:01:38.657Z,100320.69
2018-05-01T05:04:06.198Z,100327.77
2018-05-01T05:06:33.724Z,100340.92
2018-05-01T05:09:01.267Z,100336.42
2018-05-01T05:11:29.561Z,100334.92
2018-05-01T05:13:57.086Z,100339.88
2018-05-01T05:16:24.609Z,100354.66
2018-05-01T05:18:52.133Z,100360.58
2018-05-01T05:21:20.422Z,100361.60
2018-05-01T05:23:47.959Z,100368.92
2018-05-01T05:26:15.487Z,100367.17
2018-05-01T05:28:43.061Z,100372.44
2018-05-01T05:31:10.634Z,100375.22
2018-05-01T05:33:38.161Z,100371.99
2018-05-01T05:36:05.676Z,100372.58
2018-05-01T05:38:34.107Z,100364.84
2018-05-01T05:41:01.646Z,100372.16
2018-05-01T05:43:29.946Z,100374.41
2018-05-01T05:45:57.509Z,100386.77
2018-05-01T05:48:25.030Z,100386.64
2018-05-01T05:50:52.579Z,100396.05
2018-05-01T05:53:20.113Z,100413.29
2018-05-01T05:55:47.649Z,100412.31
2018-05-01T05:58:15.222Z,100417.28
2018-05-01T06:00:42.759Z,100423.91
2018-05-01T06:03:11.073Z,100429.76
2018-05-01T06:05:38.599Z,100421.94
2018-05-01T06:08:06.895Z,100431.45
2018-05-01T06:10:35.333Z,100432.05
2018-05-01T06:13:02.862Z,100427.56
2018-05-01T06:15:30.389Z,100445.27
2018-05-01T06:17:57.949Z,100425.34
2018-05-01T06:20:25.553Z,100431.41
2018-05-01T06:22:53.096Z,100434.93
2018-05-01T06:25:21.409Z,100447.44
2018-05-01T06:27:48.933Z,100441.77
2018-05-01T06:30:17.217Z,100440.58
2018-05-01T06:32:45.509Z,100447.45
2018-05-01T06:35:13.768Z,100438.23
2018-05-01T06:37:41.314Z,100447.41
2018-05-01T06:40:08.863Z,100454.55
2018-05-01T06:42:36.439Z,100464.09
2018-05-01T06:45:03.974Z,100463.05
2018-05-01T06:47:31.526Z,100463.80
2018-05-01T06:49:59.145Z,100472.64
2018-05-01T06:52:26.803Z,100476.48
2018-05-01T06:54:54.362Z,100485.53
2018-05-01T06:57:21.901Z,100488.09
2018-05-01T06:59:49.514Z,100483.27
2018-05-01T07:02:17.821Z,100491.75
2018-05-01T07:04:45.354Z,100501.37
2018-05-01T07:07:12.901Z,100494.92
2018-05-01T07:09:40.436Z,100495.41
2018-05-01T07:12:07.970Z,100487.47
2018-05-01T07:14:35.510Z,100501.02
2018-05-01T07:17:03.826Z,100496.94
2018-05-01T07:19:31.358Z,100487.94
2018-05-01T07:21:59.665Z,100500.97
2018-05-01T07:24:27.210Z,100505.89
2018-05-01T07:26:55.546Z,100504.14
2018-05-01T07:29:23.069Z,100494.66
2018-05-01T07:31:50.594Z,100496.45
2018-05-01T07:34:18.138Z,100498.09
2018-05-01T07:36:45.681Z,100503.34
2018-05-01T07:39:13.221Z,100508.87
2018-05-01T07:41:40.781Z,100520.62
2018-05-01T07:44:08.321Z,100509.49
2018-05-01T07:46:35.837Z,100519.80
2018-05-01T07:49:03.472Z,100517.56
2018-05-01T07:51:31.078Z,100510.29
2018-05-01T07:53:58.614Z,100529.42
2018-05-01T07:56:26.165Z,100507.48
2018-05-01T07:58:54.564Z,100524.36
2018-05-01T08:01:23.132Z,100517.55
2018-05-01T08:03:51.443Z,100521.97
2018-05-01T08:06:18.970Z,100519.62
2018-05-01T08:08:46.506Z,100525.51
2018-05-01T08:11:14.127Z,100525.09
2018-05-01T08:13:41.730Z,100528.33
2018-05-01T08:16:09.329Z,100542.40
2018-05-01T08:18:37.023Z,100542.44
2018-05-01T08:21:04.520Z,100549.23
2018-05-01T08:23:32.057Z,100544.65
2018-05-01T08:25:59.614Z,100546.41
2018-05-01T08:28:27.170Z,100542.17
2018-05-01T08:30:54.754Z,100555.58
2018-05-01T08:33:22.337Z,100540.08
2018-05-01T08:35:49.920Z,100552.70
2018-05-01T08:38:17.487Z,100552.59
2018-05-01T08:40:46.571Z,100555.78
2018-05-01T08:43:14.131Z,100558.03
2018-05-01T08:45:41.745Z,100548.09
2018-05-01T08:48:10.082Z,100557.08
2018-05-01T08:50:37.637Z,100561.81
2018-05-01T08:53:05.195Z,100558.61
2018-05-01T08:55:32.830Z,100557.23
2018-05-01T08:58:01.304Z,100563.70
2018-05-01T09:00:29.713Z,100572.95
2018-05-01T09:02:57.260Z,100574.99
2018-05-01T09:05:25.572Z,100567.88
2018-05-01T09:07:53.176Z,100592.16
2018-05-01T09:10:21.504Z,100576.92
2018-05-01T09:12:49.033Z,100577.45
2018-05-01T09:15:16.606Z,100586.10
2018-05-01T09:17:45.067Z,100580.66
2018-05-01T09:20:12.582Z,100591.89
2018-05-01T09:22:40.111Z,100588.95
2018-05-01T09:25:07.666Z,100588.73
2018-05-01T09:27:35.249Z,100576.56
2018-05-01T09:30:03.562Z,100588.48
2018-05-01T09:32:31.130Z,100592.55
2018-05-01T09:34:58.676Z,100592.84
2018-05-01T09:37:26.206Z,100610.25
2018-05-01T09:39:56.081Z,100600.27
2018-05-01T09:42:24.024Z,100605.70
2018-05-01T09:44:51.867Z,100604.36
2018-05-01T09:47:20.548Z,100610.89
2018-05-01T09:49:48.380Z,100609.94
2018-05-01T09:52:17.267Z,100618.12
2018-05-01T09:54:45.844Z,100608.14
2018-05-01T09:57:14.276Z,100616.34
2018-05-01T09:59:42.751Z,100611.80
2018-05-01T10:02:11.140Z,100613.33
2018-05-01T10:04:39.521Z,100602.95
2018-05-01T10:07:07.960Z,100608.55
2018-05-01T10:09:36.345Z,100611.69
2018-05-01T10:12:04.837Z,100615.84
2018-05-01T10:14:33.198Z,100621.36
2018-05-01T10:17:02.407Z,100628.45
2018-05-01T10:19:31.553Z,100625.30
2018-05-01T10:22:00.088Z,100623.82
2018-05-01T10:24:29.501Z,100620.66
2018-05-01T10:26:58.248Z,100634.95
2018-05-01T10:29:27.042Z,100636.60
2018-05-01T10:31:55.856Z,100634.11
2018-05-01T10:34:25.174Z,100645.69
2018-05-01T10:36:53.771Z,100641.39
2018-05-01T10:39:22.198Z,100650.05
2018-05-01T10:41:50.633Z,100656.66
2018-05-01T10:44:19.797Z,100648.02
2018-05-01T10:46:48.181Z,100642.34
2018-05-01T10:49:16.584Z,100653.70
2018-05-01T10:51:44.972Z,100637.84
2018-05-01T10:54:14.133Z,100654.16
2018-05-01T10:56:42.538Z,100657.59
2018-05-01T10:59:10.948Z,100649.27
2018-05-01T11:01:40.121Z,100644.13
2018-05-01T11:04:08.602Z,100649.02
2018-05-01T11:06:37.013Z,100656.14
2018-05-01T11:09:06.159Z,100655.78
2018-05-01T11:11:34.565Z,100652.73
2018-05-01T11:14:03.059Z,100648.38
2018-05-01T11:16:31.490Z,100656.10
2018-05-01T11:18:59.916Z,100653.67
2018-05-01T11:21:28.576Z,100658.52
2018-05-01T11:23:56.965Z,100662.64
2018-05-01T11:26:26.282Z,100669.67
2018-05-01T11:28:54.722Z,100673.31
2018-05-01T11:31:23.910Z,100669.70
2018-05-01T11:33:53.081Z,100667.05
2018-05-01T11:36:21.501Z,100676.07
2018-05-01T11:38:50.673Z,100677.13
2018-05-01T11:41:20.612Z,100677.90
2018-05-01T11:43:51.527Z,100677.57
2018-05-01T11:46:22.448Z,100669.56
2018-05-01T11:48:51.778Z,100676.59
2018-05-01T11:51:20.166Z,100673.48
2018-05-01T11:53:48.654Z,100671.43
2018-05-01T11:56:17.086Z,100684.17
2018-05-01T11:58:45.479Z,100665.20
2018-05-01T12:01:13.910Z,100680.06
2018-05-01T12:03:42.309Z,100680.41
2018-05-01T12:06:11.531Z,100680.75
2018-05-01T12:08:39.948Z,100675.61
2018-05-01T12:11:08.327Z,100675.12
2018-05-01T12:13:36.748Z,100678.48
2018-05-01T12:16:05.139Z,100673.76
2018-05-01T12:18:33.645Z,100676.30
2018-05-01T12:21:01.987Z,100682.14
2018-05-01T12:23:30.417Z,100672.21
2018-05-01T12:25:58.941Z,100680.59
2018-05-01T12:28:27.395Z,100680.27
2018-05-01T12:30:55.801Z,100680.55
2018-05-01T12:33:24.286Z,100683.77
2018-05-01T12:35:54.337Z,100676.63
2018-05-01T12:38:22.755Z,100678.44
2018-05-01T12:40:51.214Z,100690.83
2018-05-01T12:43:19.749Z,100693.70
2018-05-01T12:45:48.145Z,100684.48
2018-05-01T12:48:16.697Z,100689.28
2018-05-01T12:50:45.031Z,100685.66
2018-05-01T12:53:13.416Z,100691.76
2018-05-01T12:55:41.877Z,100688.02
2018-05-01T12:58:10.291Z,100690.27
2018-05-01T13:00:38.685Z,100691.37
2018-05-01T13:03:07.118Z,100695.36
2018-05-01T13:05:37.765Z,100715.08
2018-05-01T13:08:07.591Z,100714.55
2018-05-01T13:10:36.538Z,100712.89
2018-05-01T13:13:05.162Z,100713.02
2018-05-01T13:15:33.864Z,100708.00
2018-05-01T13:18:02.769Z,100704.34
2018-05-01T13:20:31.562Z,100700.72
2018-05-01T13:23:00.229Z,100698.77
2018-05-01T13:25:29.060Z,100709.95
2018-05-01T13:27:58.677Z,100712.16
2018-05-01T13:30:27.836Z,100709.13
2018-05-01T13:32:56.346Z,100711.80
2018-05-01T13:35:24.731Z,100720.64
2018-05-01T13:37:53.888Z,100719.45
2018-05-01T13:40:22.298Z,100724.27
2018-05-01T13:42:50.676Z,100730.45
2018-05-01T13:45:19.081Z,100723.81
2018-05-01T13:47:47.486Z,100722.75
2018-05-01T13:50:15.916Z,100717.36
2018-05-01T13:52:44.351Z,100719.00
2018-05-01T13:55:12.809Z,100727.16
2018-05-01T13:57:41.218Z,100727.77
2018-05-01T14:00:09.598Z,100737.16
2018-05-01T14:02:37.964Z,100734.37
2018-05-01T14:05:06.412Z,100730.05
2018-05-01T14:07:34.884Z,100725.05
2018-05-01T14:10:04.061Z,100714.75
2018-05-01T14:12:33.241Z,100726.72
2018-05-01T14:15:01.632Z,100733.90
2018-05-01T14:17:30.031Z,100726.67
2018-05-01T14:19:58.737Z,100723.99
2018-05-01T14:22:28.190Z,100729.53
2018-05-01T14:24:56.953Z,100721.73
2018-05-01T14:27:25.806Z,100728.19
2018-05-01T14:29:55.316Z,100733.80
2018-05-01T14:32:24.792Z,100728.30
2018-05-01T14:34:53.791Z,100726.33
2018-05-01T14:37:22.847Z,100731.56
2018-05-01T14:39:51.319Z,100730.62
2018-05-01T14:42:20.511Z,100725.02
2018-05-01T14:44:48.985Z,100728.91
2018-05-01T14:47:17.381Z,100721.34
2018-05-01T14:49:45.775Z,100730.12
2018-05-01T14:52:15.194Z,100722.67
2018-05-01T14:54:45.374Z,100727.09
2018-05-01T14:57:13.793Z,100731.69
2018-05-01T14:59:42.942Z,100730.11
2018-05-01T15:02:12.127Z,100715.34
2018-05-01T15:04:40.574Z,100722.73
2018-05-01T15:07:09.767Z,100725.69
2018-05-01T15:09:38.168Z,100723.75
2018-05-01T15:12:07.378Z,100728.61
2018-05-01T15:14:35.853Z,100722.61
2018-05-01T15:17:05.006Z,100730.39
2018-05-01T15:19:33.416Z,100726.20
2018-05-01T15:22:01.821Z,100730.09
2018-05-01T15:24:31.006Z,100729.93
2018-05-01T15:26:59.407Z,100728.44
2018-05-01T15:29:28.643Z,100735.20
2018-05-01T15:31:57.034Z,100731.29
2018-05-01T15:34:25.429Z,100728.20
2018-05-01T15:36:53.807Z,100734.59
2018-05-01T15:39:22.233Z,100729.94
2018-05-01T15:41:51.591Z,100729.42
2018-05-01T15:44:20.329Z,100735.87
2018-05-01T15:46:49.500Z,100720.84
2018-05-01T15:49:18.155Z,100724.04
2018-05-01T15:51:46.570Z,100723.66
2018-05-01T15:54:14.961Z,100717.58
2018-05-01T15:56:43.360Z,100720.14
2018-05-01T15:59:11.778Z,100722.98
2018-05-01T16:01:40.175Z,100721.07
2018-05-01T16:04:09.533Z,100721.08
2018-05-01T16:06:38.024Z,100736.77
2018-05-01T16:09:06.393Z,100733.69
2018-05-01T16:11:34.810Z,100725.27
2018-05-01T16:14:03.269Z,100734.83
2018-05-01T16:16:31.609Z,100735.25
2018-05-01T16:19:00.139Z,100730.45
2018-05-01T16:21:29.555Z,100734.42
2018-05-01T16:23:58.774Z,100734.38
2018-05-01T16:26:27.323Z,100734.39
2018-05-01T16:28:55.718Z,100734.38
2018-05-01T16:31:25.154Z,100728.66
2018-05-01T16:33:54.024Z,100722.39
2018-05-01T16:36:23.358Z,100720.70
2018-05-01T16:38:51.792Z,100721.75
2018-05-01T16:41:20.285Z,100707.02
2018-05-01T16:43:55.561Z,100716.65
2018-05-01T16:46:24.222Z,100720.73
2018-05-01T16:48:57.608Z,100723.36
2018-05-01T16:51:26.045Z,100735.71
2018-05-01T16:53:54.433Z,100734.81
2018-05-01T16:56:22.888Z,100731.77
2018-05-01T16:58:53.305Z,100737.77
2018-05-01T17:01:22.511Z,100735.59
2018-05-01T17:03:51.665Z,100736.85
2018-05-01T17:06:22.159Z,100737.30
2018-05-01T17:08:52.900Z,100738.13
2018-05-01T17:11:23.620Z,100730.99
2018-05-01T17:13:52.818Z,100734.92
2018-05-01T17:16:28.834Z,100746.67
2018-05-01T17:18:57.519Z,100739.31
2018-05-01T17:21:26.540Z,100748.39
2018-05-01T17:23:57.949Z,100739.30
2018-05-01T17:26:26.381Z,100744.93
2018-05-01T17:28:56.546Z,100746.57
2018-05-01T17:31:24.971Z,100745.27
2018-05-01T17:33:53.475Z,100742.66
2018-05-01T17:36:21.949Z,100742.52
2018-05-01T17:38:51.455Z,100738.66
2018-05-01T17:41:22.736Z,100742.18
2018-05-01T17:43:51.956Z,100742.66
2018-05-01T17:46:20.448Z,100740.92
2018-05-01T17:48:56.132Z,100743.55
2018-05-01T17:51:25.299Z,100741.00
2018-05-01T17:53:53.968Z,100739.76
2018-05-01T17:56:24.465Z,100741.09
2018-05-01T17:58:57.411Z,100748.76
2018-05-01T18:01:29.283Z,100752.66
2018-05-01T18:03:57.709Z,100756.98
2018-05-01T18:06:26.923Z,100749.20
2018-05-01T18:08:58.009Z,100757.77
2018-05-01T18:11:26.527Z,100755.12
2018-05-01T18:13:55.029Z,100758.52
2018-05-01T18:16:24.230Z,100757.12
2018-05-01T18:18:53.672Z,100758.86
2018-05-01T18:21:32.397Z,100763.23
2018-05-01T18:24:01.534Z,100763.92
2018-05-01T18:26:30.570Z,100762.48
2018-05-01T18:28:59.791Z,100766.80
2018-05-01T18:31:28.214Z,100764.05
2018-05-01T18:33:58.390Z,100763.17
2018-05-01T18:36:27.641Z,100769.06
2018-05-01T18:38:56.107Z,100764.09
2018-05-01T18:41:24.514Z,100762.91
2018-05-01T18:43:53.065Z,100770.44
2018-05-01T18:46:21.470Z,100769.75
2018-05-01T18:48:49.913Z,100769.69
2018-05-01T18:51:18.359Z,100770.77
2018-05-01T18:53:46.761Z,100769.75
2018-05-01T18:56:15.975Z,100770.84
2018-05-01T18:58:45.186Z,100765.30
2018-05-01T19:01:13.713Z,100764.45
2018-05-01T19:03:42.177Z,100770.89
2018-05-01T19:06:10.604Z,100782.98
2018-05-01T19:08:39.002Z,100783.74
2018-05-01T19:11:08.203Z,100787.81
2018-05-01T19:13:37.397Z,100794.20
2018-05-01T19:16:05.815Z,100786.04
2018-05-01T19:18:34.261Z,100790.81
2018-05-01T19:21:02.778Z,100787.72
2018-05-01T19:23:31.951Z,100801.59
2018-05-01T19:26:00.407Z,100809.19
2018-05-01T19:28:29.957Z,100810.88
2018-05-01T19:30:58.581Z,100810.75
2018-05-01T19:33:27.791Z,100812.69
2018-05-01T19:35:56.188Z,100813.30
2018-05-01T19:38:24.648Z,100822.95
2018-05-01T19:40:53.112Z,100822.15
2018-05-01T19:43:22.304Z,100817.47
2018-05-01T19:45:51.538Z,100825.86
2018-05-01T19:48:19.993Z,100825.89
2018-05-01T19:50:48.487Z,100830.63
2018-05-01T19:53:17.744Z,100823.86
2018-05-01T19:55:46.176Z,100824.83
2018-05-01T19:58:15.334Z,100828.27
2018-05-01T20:00:43.967Z,100834.06
2018-05-01T20:03:13.166Z,100831.62
2018-05-01T20:05:41.594Z,100829.05
2018-05-01T20:08:10.000Z,100829.03
2018-05-01T20:10:39.414Z,100832.00
2018-05-01T20:13:09.858Z,100839.02
2018-05-01T20:15:39.970Z,100837.39
2018-05-01T20:18:09.428Z,100842.28
2018-05-01T20:20:37.878Z,100832.84
2018-05-01T20:23:07.063Z,100832.25
2018-05-01T20:25:35.481Z,100840.66
2018-05-01T20:28:03.915Z,100838.05
2018-05-01T20:30:32.357Z,100838.15
2018-05-01T20:33:00.777Z,100838.78
2018-05-01T20:35:29.220Z,100842.55
2018-05-01T20:37:57.737Z,100842.18
2018-05-01T20:40:26.139Z,100850.20
2018-05-01T20:42:54.632Z,100856.78
2018-05-01T20:45:23.144Z,100857.70
2018-05-01T20:47:53.275Z,100854.09
2018-05-01T20:50:21.702Z,100859.80
2018-05-01T20:52:50.120Z,100858.11
2018-05-01T20:55:18.608Z,100862.29
2018-05-01T20:57:47.809Z,100857.10
2018-05-01T21:00:17.019Z,100852.52
2018-05-01T21:02:46.206Z,100853.98
2018-05-01T21:05:15.432Z,100855.39
2018-05-01T21:07:43.847Z,100858.61
2018-05-01T21:10:12.248Z,100860.86
2018-05-01T21:12:40.990Z,100852.39
2018-05-01T21:15:10.178Z,100848.41
2018-05-01T21:17:41.339Z,100849.30
2018-05-01T21:20:10.815Z,100861.89
2018-05-01T21:22:40.054Z,100854.73
2018-05-01T21:25:08.450Z,100859.26
2018-05-01T21:27:36.858Z,100854.81
2018-05-01T21:30:05.246Z,100860.86
2018-05-01T21:32:34.456Z,100850.78
2018-05-01T21:35:02.899Z,100859.42
2018-05-01T21:37:31.444Z,100852.32
2018-05-01T21:40:00.006Z,100857.27
2018-05-01T21:42:28.627Z,100852.23
2018-05-01T21:44:57.066Z,100858.38
2018-05-01T21:47:25.513Z,100859.48
2018-05-01T21:49:54.904Z,100850.30
2018-05-01T21:52:24.054Z,100855.83
2018-05-01T21:54:52.512Z,100850.61
2018-05-01T21:57:21.039Z,100855.61
2018-05-01T21:59:50.123Z,100854.31
2018-05-01T22:02:18.554Z,100856.70
2018-05-01T22:04:47.838Z,100862.25
2018-05-01T22:07:16.253Z,100868.28
2018-05-01T22:09:45.429Z,100870.89
2018-05-01T22:12:13.854Z,100873.91
2018-05-01T22:14:42.242Z,100879.34
2018-05-01T22:17:10.633Z,100880.19
2018-05-01T22:19:39.646Z,100880.93
2018-05-01T22:22:08.044Z,100877.80
2018-05-01T22:24:36.460Z,100876.98
2018-05-01T22:27:05.630Z,100873.94
2018-05-01T22:29:34.034Z,100866.63
2018-05-01T22:32:03.286Z,100874.48
2018-05-01T22:34:31.764Z,100868.92
2018-05-01T22:37:00.320Z,100870.34
2018-05-01T22:39:29.485Z,100865.51
2018-05-01T22:41:57.949Z,100874.06
2018-05-01T22:44:26.343Z,100875.23
2018-05-01T22:46:54.766Z,100876.25
2018-05-01T22:49:23.182Z,100879.28
2018-05-01T22:51:51.554Z,100878.56
2018-05-01T22:54:19.962Z,100878.63
2018-05-01T22:56:48.389Z,100879.43
2018-05-01T22:59:16.781Z,100877.73
2018-05-01T23:01:45.186Z,100877.34
2018-05-01T23:04:13.664Z,100873.42
2018-05-01T23:06:42.814Z,100878.41
2018-05-01T23:09:11.217Z,100884.01
2018-05-01T23:11:39.606Z,100882.80
2018-05-01T23:14:07.999Z,100883.70
2018-05-01T23:16:36.417Z,100885.22
2018-05-01T23:19:04.808Z,100875.89
2018-05-01T23:21:33.201Z,100878.05
2018-05-01T23:24:01.579Z,100877.69
2018-05-01T23:26:29.965Z,100881.03
2018-05-01T23:28:58.370Z,100874.69
2018-05-01T23:31:26.818Z,100872.98
2018-05-01T23:33:55.222Z,100871.77
2018-05-01T23:36:23.648Z,100872.62
2018-05-01T23:38:52.045Z,100868.23
2018-05-01T23:41:21.461Z,100868.61
2018-05-01T23:43:49.856Z,100873.34
2018-05-01T23:46:18.249Z,100875.03
2018-05-01T23:48:46.643Z,100872.95
2018-05-01T23:51:15.024Z,100868.43
2018-05-01T23:53:43.432Z,100873.17
2018-05-01T23:56:11.833Z,100864.16
2018-05-01T23:58:40.222Z,100868.66
